sensor_id;sensor_type;location;lat;lon;timestamp;P1;durP1;ratioP1;P2;durP2;ratioP2
7074;SDS011;3578;51.568;6.932;2023-08-12T00:01:52;26.67;;;19.97;;
7074;SDS011;3578;51.568;6.932;2023-08-12T00:04:19;20.93;;;18.37;;
7074;SDS011;3578;51.568;6.932;2023-08-12T00:06:46;28.37;;;19.20;;
7074;SDS011;3578;51.568;6.932;2023-08-12T00:09:14;32.00;;;19.80;;
7074;SDS011;3578;51.568;6.932;2023-08-12T00:11:41;23.63;;;19.30;;
7074;SDS011;3578;51.568;6.932;2023-08-12T00:14:09;28.17;;;19.43;;
7074;SDS011;3578;51.568;6.932;2023-08-12T00:16:36;28.00;;;19.73;;
7074;SDS011;3578;51.568;6.932;2023-08-12T00:19:03;23.53;;;19.00;;
7074;SDS011;3578;51.568;6.932;2023-08-12T00:21:30;27.07;;;18.20;;
7074;SDS011;3578;51.568;6.932;2023-08-12T00:23:57;33.67;;;18.83;;
7074;SDS011;3578;51.568;6.932;2023-08-12T00:26:24;24.90;;;19.23;;
7074;SDS011;3578;51.568;6.932;2023-08-12T00:28:52;30.30;;;20.67;;
7074;SDS011;3578;51.568;6.932;2023-08-12T00:31:20;22.50;;;19.50;;
7074;SDS011;3578;51.568;6.932;2023-08-12T00:33:47;25.03;;;19.50;;
7074;SDS011;3578;51.568;6.932;2023-08-12T00:36:14;31.87;;;18.40;;
7074;SDS011;3578;51.568;6.932;2023-08-12T00:38:41;29.80;;;22.07;;
7074;SDS011;3578;51.568;6.932;2023-08-12T00:41:08;28.60;;;19.80;;
7074;SDS011;3578;51.568;6.932;2023-08-12T00:43:35;31.70;;;20.43;;
7074;SDS011;3578;51.568;6.932;2023-08-12T00:46:02;36.03;;;20.93;;
7074;SDS011;3578;51.568;6.932;2023-08-12T00:48:31;25.70;;;19.80;;
7074;SDS011;3578;51.568;6.932;2023-08-12T00:50:58;26.03;;;19.40;;
7074;SDS011;3578;51.568;6.932;2023-08-12T00:53:25;33.90;;;22.40;;
7074;SDS011;3578;51.568;6.932;2023-08-12T00:55:53;28.70;;;20.07;;
7074;SDS011;3578;51.568;6.932;2023-08-12T00:58:20;30.30;;;21.77;;
7074;SDS011;3578;51.568;6.932;2023-08-12T01:00:48;27.17;;;19.97;;
7074;SDS011;3578;51.568;6.932;2023-08-12T01:03:15;30.20;;;20.23;;
7074;SDS011;3578;51.568;6.932;2023-08-12T01:05:44;25.67;;;19.10;;
7074;SDS011;3578;51.568;6.932;2023-08-12T01:08:12;27.33;;;19.33;;
7074;SDS011;3578;51.568;6.932;2023-08-12T01:10:39;26.53;;;19.53;;
7074;SDS011;3578;51.568;6.932;2023-08-12T01:13:19;25.10;;;19.90;;
7074;SDS011;3578;51.568;6.932;2023-08-12T01:15:58;27.43;;;19.07;;
7074;SDS011;3578;51.568;6.932;2023-08-12T01:18:29;29.37;;;20.53;;
7074;SDS011;3578;51.568;6.932;2023-08-12T01:20:58;29.00;;;20.77;;
7074;SDS011;3578;51.568;6.932;2023-08-12T01:23:30;28.10;;;19.80;;
7074;SDS011;3578;51.568;6.932;2023-08-12T01:25:57;34.13;;;19.60;;
7074;SDS011;3578;51.568;6.932;2023-08-12T01:28:24;34.40;;;23.47;;
7074;SDS011;3578;51.568;6.932;2023-08-12T01:30:51;37.43;;;24.00;;
7074;SDS011;3578;51.568;6.932;2023-08-12T01:33:27;35.57;;;23.87;;
7074;SDS011;3578;51.568;6.932;2023-08-12T01:36:04;24.93;;;20.03;;
7074;SDS011;3578;51.568;6.932;2023-08-12T01:38:37;34.57;;;22.77;;
7074;SDS011;3578;51.568;6.932;2023-08-12T01:41:06;35.10;;;22.80;;
7074;SDS011;3578;51.568;6.932;2023-08-12T01:43:36;28.90;;;21.83;;
7074;SDS011;3578;51.568;6.932;2023-08-12T01:46:04;68.77;;;24.63;;
7074;SDS011;3578;51.568;6.932;2023-08-12T01:48:31;35.67;;;21.50;;
7074;SDS011;3578;51.568;6.932;2023-08-12T01:50:58;32.10;;;23.33;;
7074;SDS011;3578;51.568;6.932;2023-08-12T01:53:26;47.73;;;26.23;;
7074;SDS011;3578;51.568;6.932;2023-08-12T01:55:54;34.77;;;24.40;;
7074;SDS011;3578;51.568;6.932;2023-08-12T01:58:21;40.67;;;27.00;;
7074;SDS011;3578;51.568;6.932;2023-08-12T02:00:48;37.70;;;25.57;;
7074;SDS011;3578;51.568;6.932;2023-08-12T02:03:15;37.63;;;25.53;;
7074;SDS011;3578;51.568;6.932;2023-08-12T02:05:42;54.07;;;31.77;;
7074;SDS011;3578;51.568;6.932;2023-08-12T02:08:09;82.63;;;41.73;;
7074;SDS011;3578;51.568;6.932;2023-08-12T02:10:36;87.90;;;41.13;;
7074;SDS011;3578;51.568;6.932;2023-08-12T02:13:05;69.27;;;37.00;;
7074;SDS011;3578;51.568;6.932;2023-08-12T02:15:32;80.27;;;39.80;;
7074;SDS011;3578;51.568;6.932;2023-08-12T02:17:58;66.43;;;37.90;;
7074;SDS011;3578;51.568;6.932;2023-08-12T02:20:25;66.67;;;37.30;;
7074;SDS011;3578;51.568;6.932;2023-08-12T02:22:52;78.40;;;41.17;;
7074;SDS011;3578;51.568;6.932;2023-08-12T02:25:19;88.40;;;41.10;;
7074;SDS011;3578;51.568;6.932;2023-08-12T02:27:46;94.03;;;41.87;;
7074;SDS011;3578;51.568;6.932;2023-08-12T02:30:14;85.33;;;41.93;;
7074;SDS011;3578;51.568;6.932;2023-08-12T02:32:41;92.27;;;40.17;;
7074;SDS011;3578;51.568;6.932;2023-08-12T02:35:09;77.40;;;41.50;;
7074;SDS011;3578;51.568;6.932;2023-08-12T02:37:36;89.70;;;43.13;;
7074;SDS011;3578;51.568;6.932;2023-08-12T02:40:04;76.67;;;39.60;;
7074;SDS011;3578;51.568;6.932;2023-08-12T02:42:32;96.83;;;41.20;;
7074;SDS011;3578;51.568;6.932;2023-08-12T02:44:59;68.77;;;37.73;;
7074;SDS011;3578;51.568;6.932;2023-08-12T02:47:28;81.63;;;39.27;;
7074;SDS011;3578;51.568;6.932;2023-08-12T02:49:55;104.50;;;42.23;;
7074;SDS011;3578;51.568;6.932;2023-08-12T02:52:22;78.77;;;40.77;;
7074;SDS011;3578;51.568;6.932;2023-08-12T02:54:49;69.37;;;37.93;;
7074;SDS011;3578;51.568;6.932;2023-08-12T02:57:16;61.47;;;37.30;;
7074;SDS011;3578;51.568;6.932;2023-08-12T02:59:43;61.47;;;36.13;;
7074;SDS011;3578;51.568;6.932;2023-08-12T03:02:09;90.30;;;41.00;;
7074;SDS011;3578;51.568;6.932;2023-08-12T03:04:38;56.87;;;34.60;;
7074;SDS011;3578;51.568;6.932;2023-08-12T03:07:05;65.53;;;37.03;;
7074;SDS011;3578;51.568;6.932;2023-08-12T03:09:32;88.63;;;37.70;;
7074;SDS011;3578;51.568;6.932;2023-08-12T03:11:59;68.00;;;37.53;;
7074;SDS011;3578;51.568;6.932;2023-08-12T03:14:28;64.93;;;36.50;;
7074;SDS011;3578;51.568;6.932;2023-08-12T03:16:55;62.03;;;35.37;;
7074;SDS011;3578;51.568;6.932;2023-08-12T03:19:22;61.23;;;35.67;;
7074;SDS011;3578;51.568;6.932;2023-08-12T03:21:51;69.77;;;37.50;;
7074;SDS011;3578;51.568;6.932;2023-08-12T03:24:18;72.07;;;35.37;;
7074;SDS011;3578;51.568;6.932;2023-08-12T03:26:45;64.03;;;33.37;;
7074;SDS011;3578;51.568;6.932;2023-08-12T03:29:12;72.03;;;37.77;;
7074;SDS011;3578;51.568;6.932;2023-08-12T03:31:39;64.03;;;37.27;;
7074;SDS011;3578;51.568;6.932;2023-08-12T03:34:06;62.40;;;35.77;;
7074;SDS011;3578;51.568;6.932;2023-08-12T03:36:33;80.80;;;38.03;;
7074;SDS011;3578;51.568;6.932;2023-08-12T03:39:01;60.13;;;35.40;;
7074;SDS011;3578;51.568;6.932;2023-08-12T03:41:28;63.47;;;36.83;;
7074;SDS011;3578;51.568;6.932;2023-08-12T03:43:55;55.77;;;33.70;;
7074;SDS011;3578;51.568;6.932;2023-08-12T03:46:22;67.30;;;36.70;;
7074;SDS011;3578;51.568;6.932;2023-08-12T03:48:49;59.83;;;34.90;;
7074;SDS011;3578;51.568;6.932;2023-08-12T03:51:16;62.13;;;35.93;;
7074;SDS011;3578;51.568;6.932;2023-08-12T03:53:43;61.33;;;34.93;;
7074;SDS011;3578;51.568;6.932;2023-08-12T03:56:11;63.40;;;36.17;;
7074;SDS011;3578;51.568;6.932;2023-08-12T03:58:41;61.43;;;35.50;;
7074;SDS011;3578;51.568;6.932;2023-08-12T04:01:08;62.80;;;35.97;;
7074;SDS011;3578;51.568;6.932;2023-08-12T04:03:35;54.80;;;33.50;;
7074;SDS011;3578;51.568;6.932;2023-08-12T04:06:02;67.70;;;37.00;;
7074;SDS011;3578;51.568;6.932;2023-08-12T04:08:29;63.10;;;36.20;;
7074;SDS011;3578;51.568;6.932;2023-08-12T04:10:57;119.17;;;43.57;;
7074;SDS011;3578;51.568;6.932;2023-08-12T04:13:25;62.43;;;33.47;;
7074;SDS011;3578;51.568;6.932;2023-08-12T04:15:52;98.97;;;37.47;;
7074;SDS011;3578;51.568;6.932;2023-08-12T04:18:19;51.50;;;32.20;;
7074;SDS011;3578;51.568;6.932;2023-08-12T04:20:47;60.37;;;35.37;;
7074;SDS011;3578;51.568;6.932;2023-08-12T04:23:15;68.73;;;34.87;;
7074;SDS011;3578;51.568;6.932;2023-08-12T04:25:43;51.07;;;29.63;;
7074;SDS011;3578;51.568;6.932;2023-08-12T04:28:10;65.77;;;36.50;;
7074;SDS011;3578;51.568;6.932;2023-08-12T04:30:41;64.33;;;34.40;;
7074;SDS011;3578;51.568;6.932;2023-08-12T04:33:08;62.20;;;35.57;;
7074;SDS011;3578;51.568;6.932;2023-08-12T04:35:35;88.23;;;35.13;;
7074;SDS011;3578;51.568;6.932;2023-08-12T04:38:02;62.07;;;33.70;;
7074;SDS011;3578;51.568;6.932;2023-08-12T04:40:29;81.17;;;36.47;;
7074;SDS011;3578;51.568;6.932;2023-08-12T04:42:58;61.83;;;33.43;;
7074;SDS011;3578;51.568;6.932;2023-08-12T04:45:25;45.47;;;28.27;;
7074;SDS011;3578;51.568;6.932;2023-08-12T04:47:53;62.23;;;36.17;;
7074;SDS011;3578;51.568;6.932;2023-08-12T04:50:22;71.67;;;37.20;;
7074;SDS011;3578;51.568;6.932;2023-08-12T04:52:48;81.73;;;41.20;;
7074;SDS011;3578;51.568;6.932;2023-08-12T04:55:16;108.23;;;44.63;;
7074;SDS011;3578;51.568;6.932;2023-08-12T04:57:43;100.97;;;45.30;;
7074;SDS011;3578;51.568;6.932;2023-08-12T05:00:10;99.73;;;43.40;;
7074;SDS011;3578;51.568;6.932;2023-08-12T05:02:38;109.57;;;46.00;;
7074;SDS011;3578;51.568;6.932;2023-08-12T05:05:07;106.67;;;42.50;;
7074;SDS011;3578;51.568;6.932;2023-08-12T05:07:34;92.70;;;44.03;;
7074;SDS011;3578;51.568;6.932;2023-08-12T05:10:01;109.00;;;45.97;;
7074;SDS011;3578;51.568;6.932;2023-08-12T05:12:29;95.27;;;44.37;;
7074;SDS011;3578;51.568;6.932;2023-08-12T05:14:56;81.73;;;42.90;;
7074;SDS011;3578;51.568;6.932;2023-08-12T05:17:23;78.33;;;41.13;;
7074;SDS011;3578;51.568;6.932;2023-08-12T05:19:50;73.47;;;39.20;;
7074;SDS011;3578;51.568;6.932;2023-08-12T05:22:18;88.07;;;42.50;;
7074;SDS011;3578;51.568;6.932;2023-08-12T05:24:45;86.87;;;42.03;;
7074;SDS011;3578;51.568;6.932;2023-08-12T05:27:12;85.23;;;41.17;;
7074;SDS011;3578;51.568;6.932;2023-08-12T05:29:39;77.63;;;37.87;;
7074;SDS011;3578;51.568;6.932;2023-08-12T05:32:06;84.07;;;41.40;;
7074;SDS011;3578;51.568;6.932;2023-08-12T05:34:33;83.97;;;40.57;;
7074;SDS011;3578;51.568;6.932;2023-08-12T05:37:00;77.80;;;39.53;;
7074;SDS011;3578;51.568;6.932;2023-08-12T05:39:28;77.43;;;40.97;;
7074;SDS011;3578;51.568;6.932;2023-08-12T05:41:55;79.67;;;41.37;;
7074;SDS011;3578;51.568;6.932;2023-08-12T05:44:22;83.23;;;42.60;;
7074;SDS011;3578;51.568;6.932;2023-08-12T05:46:52;78.00;;;43.20;;
7074;SDS011;3578;51.568;6.932;2023-08-12T05:49:19;90.87;;;43.00;;
7074;SDS011;3578;51.568;6.932;2023-08-12T05:51:46;73.63;;;42.60;;
7074;SDS011;3578;51.568;6.932;2023-08-12T05:54:12;103.93;;;45.90;;
7074;SDS011;3578;51.568;6.932;2023-08-12T05:56:40;91.80;;;42.53;;
7074;SDS011;3578;51.568;6.932;2023-08-12T05:59:07;75.20;;;39.47;;
7074;SDS011;3578;51.568;6.932;2023-08-12T06:01:34;76.50;;;39.50;;
7074;SDS011;3578;51.568;6.932;2023-08-12T06:04:01;84.23;;;43.03;;
7074;SDS011;3578;51.568;6.932;2023-08-12T06:06:27;76.73;;;41.23;;
7074;SDS011;3578;51.568;6.932;2023-08-12T06:08:54;84.03;;;42.30;;
7074;SDS011;3578;51.568;6.932;2023-08-12T06:11:21;78.90;;;40.27;;
7074;SDS011;3578;51.568;6.932;2023-08-12T06:13:50;74.65;;;40.95;;
7074;SDS011;3578;51.568;6.932;2023-08-12T06:16:17;62.67;;;37.13;;
7074;SDS011;3578;51.568;6.932;2023-08-12T06:18:43;68.47;;;38.20;;
7074;SDS011;3578;51.568;6.932;2023-08-12T06:21:10;74.83;;;38.60;;
7074;SDS011;3578;51.568;6.932;2023-08-12T06:23:37;82.47;;;38.63;;
7074;SDS011;3578;51.568;6.932;2023-08-12T06:26:04;58.53;;;36.07;;
7074;SDS011;3578;51.568;6.932;2023-08-12T06:28:31;68.30;;;38.37;;
7074;SDS011;3578;51.568;6.932;2023-08-12T06:31:00;71.97;;;36.33;;
7074;SDS011;3578;51.568;6.932;2023-08-12T06:33:27;61.90;;;37.27;;
7074;SDS011;3578;51.568;6.932;2023-08-12T06:35:54;70.40;;;36.57;;
7074;SDS011;3578;51.568;6.932;2023-08-12T06:38:21;68.23;;;35.37;;
7074;SDS011;3578;51.568;6.932;2023-08-12T06:40:48;56.33;;;31.57;;
7074;SDS011;3578;51.568;6.932;2023-08-12T06:43:15;51.57;;;29.70;;
7074;SDS011;3578;51.568;6.932;2023-08-12T06:45:42;49.10;;;29.93;;
7074;SDS011;3578;51.568;6.932;2023-08-12T06:48:10;42.00;;;24.50;;
7074;SDS011;3578;51.568;6.932;2023-08-12T06:50:37;39.30;;;24.27;;
7074;SDS011;3578;51.568;6.932;2023-08-12T06:53:04;43.93;;;24.43;;
7074;SDS011;3578;51.568;6.932;2023-08-12T06:55:32;35.60;;;23.30;;
7074;SDS011;3578;51.568;6.932;2023-08-12T06:57:59;31.03;;;22.33;;
7074;SDS011;3578;51.568;6.932;2023-08-12T07:00:27;40.97;;;21.70;;
7074;SDS011;3578;51.568;6.932;2023-08-12T07:02:54;31.53;;;21.83;;
7074;SDS011;3578;51.568;6.932;2023-08-12T07:05:22;34.60;;;22.70;;
7074;SDS011;3578;51.568;6.932;2023-08-12T07:07:49;27.37;;;20.40;;
7074;SDS011;3578;51.568;6.932;2023-08-12T07:10:16;33.23;;;21.03;;
7074;SDS011;3578;51.568;6.932;2023-08-12T07:12:43;33.07;;;21.27;;
7074;SDS011;3578;51.568;6.932;2023-08-12T07:15:10;30.27;;;20.07;;
7074;SDS011;3578;51.568;6.932;2023-08-12T07:17:37;26.40;;;19.47;;
7074;SDS011;3578;51.568;6.932;2023-08-12T07:20:05;29.23;;;18.63;;
7074;SDS011;3578;51.568;6.932;2023-08-12T07:22:35;23.97;;;16.60;;
7074;SDS011;3578;51.568;6.932;2023-08-12T07:25:02;24.93;;;16.77;;
7074;SDS011;3578;51.568;6.932;2023-08-12T07:27:29;29.67;;;17.70;;
7074;SDS011;3578;51.568;6.932;2023-08-12T07:29:56;21.27;;;17.67;;
7074;SDS011;3578;51.568;6.932;2023-08-12T07:32:23;20.67;;;15.73;;
7074;SDS011;3578;51.568;6.932;2023-08-12T07:34:50;24.10;;;16.30;;
7074;SDS011;3578;51.568;6.932;2023-08-12T07:37:17;20.40;;;16.40;;
7074;SDS011;3578;51.568;6.932;2023-08-12T07:39:45;19.30;;;17.20;;
7074;SDS011;3578;51.568;6.932;2023-08-12T07:42:12;20.33;;;16.47;;
7074;SDS011;3578;51.568;6.932;2023-08-12T07:44:39;18.57;;;15.03;;
7074;SDS011;3578;51.568;6.932;2023-08-12T07:47:06;21.60;;;15.90;;
7074;SDS011;3578;51.568;6.932;2023-08-12T07:49:33;21.50;;;15.90;;
7074;SDS011;3578;51.568;6.932;2023-08-12T07:52:00;20.80;;;14.90;;
7074;SDS011;3578;51.568;6.932;2023-08-12T07:54:27;18.70;;;14.80;;
7074;SDS011;3578;51.568;6.932;2023-08-12T07:56:56;18.70;;;15.73;;
7074;SDS011;3578;51.568;6.932;2023-08-12T07:59:23;17.30;;;15.57;;
7074;SDS011;3578;51.568;6.932;2023-08-12T08:01:50;20.67;;;16.80;;
7074;SDS011;3578;51.568;6.932;2023-08-12T08:04:17;18.57;;;16.53;;
7074;SDS011;3578;51.568;6.932;2023-08-12T08:06:44;21.47;;;16.00;;
7074;SDS011;3578;51.568;6.932;2023-08-12T08:09:11;22.80;;;15.00;;
7074;SDS011;3578;51.568;6.932;2023-08-12T08:11:38;16.00;;;14.50;;
7074;SDS011;3578;51.568;6.932;2023-08-12T08:14:06;17.87;;;14.43;;
7074;SDS011;3578;51.568;6.932;2023-08-12T08:16:33;16.00;;;14.37;;
7074;SDS011;3578;51.568;6.932;2023-08-12T08:19:00;19.30;;;13.50;;
7074;SDS011;3578;51.568;6.932;2023-08-12T08:21:27;14.40;;;13.20;;
7074;SDS011;3578;51.568;6.932;2023-08-12T08:23:54;14.53;;;13.20;;
7074;SDS011;3578;51.568;6.932;2023-08-12T08:26:21;15.53;;;13.67;;
7074;SDS011;3578;51.568;6.932;2023-08-12T08:28:48;13.63;;;12.23;;
7074;SDS011;3578;51.568;6.932;2023-08-12T08:31:16;14.67;;;12.50;;
7074;SDS011;3578;51.568;6.932;2023-08-12T08:33:44;14.10;;;12.67;;
7074;SDS011;3578;51.568;6.932;2023-08-12T08:36:11;16.23;;;12.63;;
7074;SDS011;3578;51.568;6.932;2023-08-12T08:38:38;14.77;;;13.10;;
7074;SDS011;3578;51.568;6.932;2023-08-12T08:41:05;13.60;;;12.20;;
7074;SDS011;3578;51.568;6.932;2023-08-12T08:43:35;14.90;;;12.10;;
7074;SDS011;3578;51.568;6.932;2023-08-12T08:46:02;13.40;;;12.30;;
7074;SDS011;3578;51.568;6.932;2023-08-12T08:48:32;14.97;;;13.40;;
7074;SDS011;3578;51.568;6.932;2023-08-12T08:51:00;19.57;;;13.10;;
7074;SDS011;3578;51.568;6.932;2023-08-12T08:53:28;13.70;;;12.20;;
7074;SDS011;3578;51.568;6.932;2023-08-12T08:55:55;17.93;;;12.10;;
7074;SDS011;3578;51.568;6.932;2023-08-12T08:58:22;12.27;;;10.67;;
7074;SDS011;3578;51.568;6.932;2023-08-12T09:00:49;12.53;;;11.13;;
7074;SDS011;3578;51.568;6.932;2023-08-12T09:03:17;13.50;;;11.57;;
7074;SDS011;3578;51.568;6.932;2023-08-12T09:05:46;12.73;;;11.13;;
7074;SDS011;3578;51.568;6.932;2023-08-12T09:08:13;13.40;;;11.07;;
7074;SDS011;3578;51.568;6.932;2023-08-12T09:10:41;12.10;;;10.60;;
7074;SDS011;3578;51.568;6.932;2023-08-12T09:13:09;14.17;;;9.70;;
7074;SDS011;3578;51.568;6.932;2023-08-12T09:15:36;17.37;;;10.90;;
7074;SDS011;3578;51.568;6.932;2023-08-12T09:18:04;10.83;;;9.40;;
7074;SDS011;3578;51.568;6.932;2023-08-12T09:20:32;9.60;;;8.60;;
7074;SDS011;3578;51.568;6.932;2023-08-12T09:23:01;9.90;;;8.87;;
7074;SDS011;3578;51.568;6.932;2023-08-12T09:25:29;11.80;;;9.53;;
7074;SDS011;3578;51.568;6.932;2023-08-12T09:27:58;12.17;;;9.17;;
7074;SDS011;3578;51.568;6.932;2023-08-12T09:30:28;10.53;;;9.50;;
7074;SDS011;3578;51.568;6.932;2023-08-12T09:32:59;10.33;;;9.33;;
7074;SDS011;3578;51.568;6.932;2023-08-12T09:35:32;10.90;;;8.60;;
7074;SDS011;3578;51.568;6.932;2023-08-12T09:38:02;12.97;;;9.70;;
7074;SDS011;3578;51.568;6.932;2023-08-12T09:40:30;11.13;;;10.07;;
7074;SDS011;3578;51.568;6.932;2023-08-12T09:42:59;12.50;;;9.70;;
7074;SDS011;3578;51.568;6.932;2023-08-12T09:45:26;11.10;;;10.00;;
7074;SDS011;3578;51.568;6.932;2023-08-12T09:47:54;16.10;;;10.60;;
7074;SDS011;3578;51.568;6.932;2023-08-12T09:50:21;11.73;;;9.73;;
7074;SDS011;3578;51.568;6.932;2023-08-12T09:52:51;13.30;;;10.20;;
7074;SDS011;3578;51.568;6.932;2023-08-12T09:55:21;11.40;;;9.90;;
7074;SDS011;3578;51.568;6.932;2023-08-12T09:57:51;17.63;;;10.63;;
7074;SDS011;3578;51.568;6.932;2023-08-12T10:00:19;17.00;;;10.87;;
7074;SDS011;3578;51.568;6.932;2023-08-12T10:02:49;16.43;;;11.50;;
7074;SDS011;3578;51.568;6.932;2023-08-12T10:05:19;10.83;;;9.20;;
7074;SDS011;3578;51.568;6.932;2023-08-12T10:07:51;13.70;;;10.30;;
7074;SDS011;3578;51.568;6.932;2023-08-12T10:10:21;13.97;;;10.53;;
7074;SDS011;3578;51.568;6.932;2023-08-12T10:12:49;13.50;;;10.20;;
7074;SDS011;3578;51.568;6.932;2023-08-12T10:15:17;13.40;;;10.37;;
7074;SDS011;3578;51.568;6.932;2023-08-12T10:17:44;15.77;;;10.23;;
7074;SDS011;3578;51.568;6.932;2023-08-12T10:20:13;11.70;;;8.80;;
7074;SDS011;3578;51.568;6.932;2023-08-12T10:22:47;9.77;;;8.00;;
7074;SDS011;3578;51.568;6.932;2023-08-12T10:25:15;9.33;;;8.33;;
7074;SDS011;3578;51.568;6.932;2023-08-12T10:27:48;8.00;;;7.30;;
7074;SDS011;3578;51.568;6.932;2023-08-12T10:30:16;8.20;;;6.33;;
7074;SDS011;3578;51.568;6.932;2023-08-12T10:32:43;10.93;;;6.90;;
7074;SDS011;3578;51.568;6.932;2023-08-12T10:35:11;7.07;;;5.27;;
7074;SDS011;3578;51.568;6.932;2023-08-12T10:37:38;7.50;;;4.77;;
7074;SDS011;3578;51.568;6.932;2023-08-12T10:40:09;7.10;;;4.50;;
7074;SDS011;3578;51.568;6.932;2023-08-12T10:42:50;4.50;;;4.10;;
7074;SDS011;3578;51.568;6.932;2023-08-12T10:45:17;5.23;;;4.47;;
7074;SDS011;3578;51.568;6.932;2023-08-12T10:47:47;10.47;;;7.00;;
7074;SDS011;3578;51.568;6.932;2023-08-12T10:50:18;18.60;;;11.67;;
7074;SDS011;3578;51.568;6.932;2023-08-12T10:52:51;10.87;;;8.77;;
7074;SDS011;3578;51.568;6.932;2023-08-12T10:55:19;8.73;;;7.57;;
7074;SDS011;3578;51.568;6.932;2023-08-12T10:57:53;7.90;;;5.57;;
7074;SDS011;3578;51.568;6.932;2023-08-12T11:00:22;5.43;;;4.93;;
7074;SDS011;3578;51.568;6.932;2023-08-12T11:02:51;6.00;;;5.50;;
7074;SDS011;3578;51.568;6.932;2023-08-12T11:05:19;6.10;;;5.43;;
7074;SDS011;3578;51.568;6.932;2023-08-12T11:07:47;6.03;;;5.53;;
7074;SDS011;3578;51.568;6.932;2023-08-12T11:10:22;5.80;;;5.30;;
7074;SDS011;3578;51.568;6.932;2023-08-12T11:12:54;6.07;;;5.47;;
7074;SDS011;3578;51.568;6.932;2023-08-12T11:15:29;7.77;;;6.00;;
7074;SDS011;3578;51.568;6.932;2023-08-12T11:17:58;6.20;;;5.70;;
7074;SDS011;3578;51.568;6.932;2023-08-12T11:20:28;6.00;;;5.50;;
7074;SDS011;3578;51.568;6.932;2023-08-12T11:22:55;7.67;;;4.77;;
7074;SDS011;3578;51.568;6.932;2023-08-12T11:25:23;5.10;;;4.80;;
7074;SDS011;3578;51.568;6.932;2023-08-12T11:27:51;4.43;;;4.20;;
7074;SDS011;3578;51.568;6.932;2023-08-12T11:30:20;5.20;;;4.80;;
7074;SDS011;3578;51.568;6.932;2023-08-12T11:32:49;5.47;;;4.90;;
7074;SDS011;3578;51.568;6.932;2023-08-12T11:35:18;4.73;;;4.33;;
7074;SDS011;3578;51.568;6.932;2023-08-12T11:37:46;5.10;;;4.70;;
7074;SDS011;3578;51.568;6.932;2023-08-12T11:40:15;6.07;;;5.63;;
7074;SDS011;3578;51.568;6.932;2023-08-12T11:42:44;5.93;;;5.43;;
7074;SDS011;3578;51.568;6.932;2023-08-12T11:45:15;6.30;;;5.53;;
7074;SDS011;3578;51.568;6.932;2023-08-12T11:47:44;4.03;;;3.77;;
7074;SDS011;3578;51.568;6.932;2023-08-12T11:50:17;6.90;;;3.87;;
7074;SDS011;3578;51.568;6.932;2023-08-12T11:52:45;3.33;;;2.70;;
7074;SDS011;3578;51.568;6.932;2023-08-12T11:55:13;4.37;;;3.17;;
7074;SDS011;3578;51.568;6.932;2023-08-12T11:57:40;4.13;;;3.27;;
7074;SDS011;3578;51.568;6.932;2023-08-12T12:00:08;3.77;;;3.43;;
7074;SDS011;3578;51.568;6.932;2023-08-12T12:02:40;4.00;;;3.70;;
7074;SDS011;3578;51.568;6.932;2023-08-12T12:05:13;6.30;;;3.63;;
7074;SDS011;3578;51.568;6.932;2023-08-12T12:07:41;4.10;;;3.77;;
7074;SDS011;3578;51.568;6.932;2023-08-12T12:10:11;4.97;;;3.90;;
7074;SDS011;3578;51.568;6.932;2023-08-12T12:12:40;4.30;;;4.00;;
7074;SDS011;3578;51.568;6.932;2023-08-12T12:15:07;4.00;;;3.80;;
7074;SDS011;3578;51.568;6.932;2023-08-12T12:17:39;6.27;;;4.97;;
7074;SDS011;3578;51.568;6.932;2023-08-12T12:20:06;5.80;;;4.60;;
7074;SDS011;3578;51.568;6.932;2023-08-12T12:22:36;6.27;;;5.57;;
7074;SDS011;3578;51.568;6.932;2023-08-12T12:25:06;6.10;;;5.50;;
7074;SDS011;3578;51.568;6.932;2023-08-12T12:27:36;6.83;;;6.13;;
7074;SDS011;3578;51.568;6.932;2023-08-12T12:30:04;6.43;;;5.83;;
7074;SDS011;3578;51.568;6.932;2023-08-12T12:32:34;6.80;;;6.20;;
7074;SDS011;3578;51.568;6.932;2023-08-12T12:35:02;6.70;;;6.10;;
7074;SDS011;3578;51.568;6.932;2023-08-12T12:37:32;7.33;;;6.63;;
7074;SDS011;3578;51.568;6.932;2023-08-12T12:39:59;7.60;;;6.90;;
7074;SDS011;3578;51.568;6.932;2023-08-12T12:42:28;8.40;;;7.60;;
7074;SDS011;3578;51.568;6.932;2023-08-12T12:44:55;8.50;;;7.80;;
7074;SDS011;3578;51.568;6.932;2023-08-12T12:47:22;9.30;;;8.40;;
7074;SDS011;3578;51.568;6.932;2023-08-12T12:49:48;10.30;;;8.27;;
7074;SDS011;3578;51.568;6.932;2023-08-12T12:52:17;10.13;;;9.33;;
7074;SDS011;3578;51.568;6.932;2023-08-12T12:54:44;11.53;;;10.57;;
7074;SDS011;3578;51.568;6.932;2023-08-12T12:57:11;13.40;;;12.20;;
7074;SDS011;3578;51.568;6.932;2023-08-12T12:59:37;14.03;;;11.83;;
7074;SDS011;3578;51.568;6.932;2023-08-12T13:02:04;13.20;;;12.00;;
7074;SDS011;3578;51.568;6.932;2023-08-12T13:04:31;18.73;;;16.73;;
7074;SDS011;3578;51.568;6.932;2023-08-12T13:06:58;16.53;;;14.97;;
7074;SDS011;3578;51.568;6.932;2023-08-12T13:09:28;19.47;;;16.33;;
7074;SDS011;3578;51.568;6.932;2023-08-12T13:11:56;15.63;;;14.10;;
7074;SDS011;3578;51.568;6.932;2023-08-12T13:14:23;16.90;;;15.20;;
7074;SDS011;3578;51.568;6.932;2023-08-12T13:16:50;17.63;;;15.73;;
7074;SDS011;3578;51.568;6.932;2023-08-12T13:19:17;17.00;;;14.53;;
7074;SDS011;3578;51.568;6.932;2023-08-12T13:21:44;15.00;;;13.50;;
7074;SDS011;3578;51.568;6.932;2023-08-12T13:24:11;12.83;;;11.83;;
7074;SDS011;3578;51.568;6.932;2023-08-12T13:26:39;13.00;;;11.80;;
7074;SDS011;3578;51.568;6.932;2023-08-12T13:29:06;14.63;;;12.67;;
7074;SDS011;3578;51.568;6.932;2023-08-12T13:31:33;13.33;;;12.13;;
7074;SDS011;3578;51.568;6.932;2023-08-12T13:34:00;12.07;;;11.10;;
7074;SDS011;3578;51.568;6.932;2023-08-12T13:36:28;12.13;;;10.97;;
7074;SDS011;3578;51.568;6.932;2023-08-12T13:38:55;13.63;;;12.23;;
7074;SDS011;3578;51.568;6.932;2023-08-12T13:41:22;14.53;;;13.03;;
7074;SDS011;3578;51.568;6.932;2023-08-12T13:43:50;15.73;;;12.93;;
7074;SDS011;3578;51.568;6.932;2023-08-12T13:46:17;15.70;;;14.30;;
7074;SDS011;3578;51.568;6.932;2023-08-12T13:48:44;12.17;;;11.23;;
7074;SDS011;3578;51.568;6.932;2023-08-12T13:51:11;8.43;;;7.80;;
7074;SDS011;3578;51.568;6.932;2023-08-12T13:53:38;8.20;;;7.10;;
7074;SDS011;3578;51.568;6.932;2023-08-12T13:56:05;6.57;;;6.07;;
7074;SDS011;3578;51.568;6.932;2023-08-12T13:58:32;6.63;;;6.10;;
7074;SDS011;3578;51.568;6.932;2023-08-12T14:01:00;8.07;;;5.50;;
7074;SDS011;3578;51.568;6.932;2023-08-12T14:03:27;6.30;;;5.80;;
7074;SDS011;3578;51.568;6.932;2023-08-12T14:05:55;5.77;;;5.13;;
7074;SDS011;3578;51.568;6.932;2023-08-12T14:08:22;5.93;;;5.33;;
7074;SDS011;3578;51.568;6.932;2023-08-12T14:10:49;5.17;;;4.67;;
7074;SDS011;3578;51.568;6.932;2023-08-12T14:13:16;5.00;;;4.60;;
7074;SDS011;3578;51.568;6.932;2023-08-12T14:15:43;9.00;;;5.37;;
7074;SDS011;3578;51.568;6.932;2023-08-12T14:18:12;4.50;;;4.30;;
7074;SDS011;3578;51.568;6.932;2023-08-12T14:20:39;5.43;;;5.00;;
7074;SDS011;3578;51.568;6.932;2023-08-12T14:23:06;4.70;;;4.40;;
7074;SDS011;3578;51.568;6.932;2023-08-12T14:25:33;4.70;;;4.27;;
7074;SDS011;3578;51.568;6.932;2023-08-12T14:28:00;3.90;;;3.70;;
7074;SDS011;3578;51.568;6.932;2023-08-12T14:30:28;4.03;;;3.73;;
7074;SDS011;3578;51.568;6.932;2023-08-12T14:32:54;7.20;;;3.70;;
7074;SDS011;3578;51.568;6.932;2023-08-12T14:35:23;4.47;;;3.27;;
7074;SDS011;3578;51.568;6.932;2023-08-12T14:37:50;3.03;;;2.83;;
7074;SDS011;3578;51.568;6.932;2023-08-12T14:40:17;2.70;;;2.50;;
7074;SDS011;3578;51.568;6.932;2023-08-12T14:42:44;3.13;;;2.93;;
7074;SDS011;3578;51.568;6.932;2023-08-12T14:45:11;3.20;;;2.53;;
7074;SDS011;3578;51.568;6.932;2023-08-12T14:47:38;3.60;;;3.30;;
7074;SDS011;3578;51.568;6.932;2023-08-12T14:50:06;2.97;;;2.20;;
7074;SDS011;3578;51.568;6.932;2023-08-12T14:52:35;2.47;;;2.20;;
7074;SDS011;3578;51.568;6.932;2023-08-12T14:55:02;4.87;;;2.27;;
7074;SDS011;3578;51.568;6.932;2023-08-12T14:57:30;2.83;;;2.63;;
7074;SDS011;3578;51.568;6.932;2023-08-12T14:59:57;2.63;;;2.40;;